sensor_id;sensor_type;location;lat;lon;timestamp;P1;durP1;ratioP1;P2;durP2;ratioP2
27003;SDS011;14546;47.590;19.022;2023-01-23T00:00:13;52.28;;;28.13;;
27003;SDS011;14546;47.590;19.022;2023-01-23T00:02:39;60.67;;;29.88;;
27003;SDS011;14546;47.590;19.022;2023-01-23T00:05:06;61.85;;;30.65;;
27003;SDS011;14546;47.590;19.022;2023-01-23T00:07:32;57.75;;;30.23;;
27003;SDS011;14546;47.590;19.022;2023-01-23T00:09:58;54.00;;;29.80;;
27003;SDS011;14546;47.590;19.022;2023-01-23T00:12:24;52.72;;;28.85;;
27003;SDS011;14546;47.590;19.022;2023-01-23T00:14:50;64.03;;;31.48;;
27003;SDS011;14546;47.590;19.022;2023-01-23T00:17:16;56.70;;;31.17;;
27003;SDS011;14546;47.590;19.022;2023-01-23T00:19:42;54.92;;;29.17;;
27003;SDS011;14546;47.590;19.022;2023-01-23T00:22:08;50.65;;;27.27;;
27003;SDS011;14546;47.590;19.022;2023-01-23T00:24:39;50.88;;;27.52;;
27003;SDS011;14546;47.590;19.022;2023-01-23T00:27:06;49.20;;;26.88;;
27003;SDS011;14546;47.590;19.022;2023-01-23T00:29:32;50.75;;;28.15;;
27003;SDS011;14546;47.590;19.022;2023-01-23T00:31:58;49.53;;;26.05;;
27003;SDS011;14546;47.590;19.022;2023-01-23T00:34:25;50.90;;;26.77;;
27003;SDS011;14546;47.590;19.022;2023-01-23T00:36:51;49.72;;;26.27;;
27003;SDS011;14546;47.590;19.022;2023-01-23T00:39:19;47.90;;;25.40;;
27003;SDS011;14546;47.590;19.022;2023-01-23T00:41:46;51.67;;;26.92;;
27003;SDS011;14546;47.590;19.022;2023-01-23T00:44:13;51.35;;;27.27;;
27003;SDS011;14546;47.590;19.022;2023-01-23T00:46:40;59.53;;;29.30;;
27003;SDS011;14546;47.590;19.022;2023-01-23T00:49:07;57.05;;;28.23;;
27003;SDS011;14546;47.590;19.022;2023-01-23T00:51:33;59.03;;;28.13;;
27003;SDS011;14546;47.590;19.022;2023-01-23T00:53:59;57.35;;;28.00;;
27003;SDS011;14546;47.590;19.022;2023-01-23T00:56:26;57.88;;;30.67;;
27003;SDS011;14546;47.590;19.022;2023-01-23T00:58:52;53.80;;;28.33;;
27003;SDS011;14546;47.590;19.022;2023-01-23T01:01:19;56.47;;;26.98;;
27003;SDS011;14546;47.590;19.022;2023-01-23T01:03:46;53.67;;;28.33;;
27003;SDS011;14546;47.590;19.022;2023-01-23T01:06:12;52.47;;;27.88;;
27003;SDS011;14546;47.590;19.022;2023-01-23T01:08:39;51.65;;;26.70;;
27003;SDS011;14546;47.590;19.022;2023-01-23T01:11:05;53.80;;;27.95;;
27003;SDS011;14546;47.590;19.022;2023-01-23T01:13:31;57.20;;;27.42;;
27003;SDS011;14546;47.590;19.022;2023-01-23T01:15:57;52.85;;;26.33;;
27003;SDS011;14546;47.590;19.022;2023-01-23T01:18:26;50.05;;;26.55;;
27003;SDS011;14546;47.590;19.022;2023-01-23T01:20:53;49.45;;;25.55;;
27003;SDS011;14546;47.590;19.022;2023-01-23T01:23:19;49.63;;;25.30;;
27003;SDS011;14546;47.590;19.022;2023-01-23T01:25:46;47.75;;;25.75;;
27003;SDS011;14546;47.590;19.022;2023-01-23T01:28:12;49.55;;;25.52;;
27003;SDS011;14546;47.590;19.022;2023-01-23T01:30:38;53.72;;;25.75;;
27003;SDS011;14546;47.590;19.022;2023-01-23T01:33:05;49.17;;;27.38;;
27003;SDS011;14546;47.590;19.022;2023-01-23T01:35:31;48.05;;;23.95;;
27003;SDS011;14546;47.590;19.022;2023-01-23T01:37:57;52.33;;;25.42;;
27003;SDS011;14546;47.590;19.022;2023-01-23T01:40:25;48.33;;;24.73;;
27003;SDS011;14546;47.590;19.022;2023-01-23T01:42:53;44.70;;;24.45;;
27003;SDS011;14546;47.590;19.022;2023-01-23T01:48:04;42.67;;;23.55;;
27003;SDS011;14546;47.590;19.022;2023-01-23T01:50:30;42.92;;;23.10;;
27003;SDS011;14546;47.590;19.022;2023-01-23T01:52:56;42.35;;;23.10;;
27003;SDS011;14546;47.590;19.022;2023-01-23T01:55:23;43.15;;;22.67;;
27003;SDS011;14546;47.590;19.022;2023-01-23T01:57:50;42.63;;;23.10;;
27003;SDS011;14546;47.590;19.022;2023-01-23T02:00:18;38.72;;;21.10;;
27003;SDS011;14546;47.590;19.022;2023-01-23T02:05:15;36.00;;;21.00;;
27003;SDS011;14546;47.590;19.022;2023-01-23T02:07:44;34.35;;;18.75;;
27003;SDS011;14546;47.590;19.022;2023-01-23T02:10:11;39.83;;;18.85;;
27003;SDS011;14546;47.590;19.022;2023-01-23T02:12:38;34.05;;;18.90;;
27003;SDS011;14546;47.590;19.022;2023-01-23T02:15:05;32.88;;;17.27;;
27003;SDS011;14546;47.590;19.022;2023-01-23T02:17:32;27.77;;;16.45;;
27003;SDS011;14546;47.590;19.022;2023-01-23T02:22:50;22.88;;;13.75;;
27003;SDS011;14546;47.590;19.022;2023-01-23T02:25:26;21.58;;;11.82;;
27003;SDS011;14546;47.590;19.022;2023-01-23T02:27:53;20.08;;;9.93;;
27003;SDS011;14546;47.590;19.022;2023-01-23T02:30:19;17.98;;;9.70;;
27003;SDS011;14546;47.590;19.022;2023-01-23T02:32:46;20.02;;;9.25;;
27003;SDS011;14546;47.590;19.022;2023-01-23T02:35:14;17.75;;;9.80;;
27003;SDS011;14546;47.590;19.022;2023-01-23T02:37:41;13.27;;;9.18;;
27003;SDS011;14546;47.590;19.022;2023-01-23T02:40:11;13.30;;;8.38;;
27003;SDS011;14546;47.590;19.022;2023-01-23T02:42:38;17.05;;;8.35;;
27003;SDS011;14546;47.590;19.022;2023-01-23T02:45:07;16.55;;;9.70;;
27003;SDS011;14546;47.590;19.022;2023-01-23T02:47:33;15.98;;;9.73;;
27003;SDS011;14546;47.590;19.022;2023-01-23T02:49:59;15.93;;;9.98;;
27003;SDS011;14546;47.590;19.022;2023-01-23T02:52:25;19.10;;;8.93;;
27003;SDS011;14546;47.590;19.022;2023-01-23T02:54:52;16.73;;;9.75;;
27003;SDS011;14546;47.590;19.022;2023-01-23T02:57:19;15.07;;;9.10;;
27003;SDS011;14546;47.590;19.022;2023-01-23T02:59:46;13.27;;;9.13;;
27003;SDS011;14546;47.590;19.022;2023-01-23T03:02:31;13.23;;;7.55;;
27003;SDS011;14546;47.590;19.022;2023-01-23T03:04:57;10.60;;;8.05;;
27003;SDS011;14546;47.590;19.022;2023-01-23T03:07:23;13.82;;;8.52;;
27003;SDS011;14546;47.590;19.022;2023-01-23T03:09:50;10.88;;;8.05;;
27003;SDS011;14546;47.590;19.022;2023-01-23T03:12:16;15.25;;;7.38;;
27003;SDS011;14546;47.590;19.022;2023-01-23T03:14:42;11.32;;;6.78;;
27003;SDS011;14546;47.590;19.022;2023-01-23T03:17:08;11.93;;;6.60;;
27003;SDS011;14546;47.590;19.022;2023-01-23T03:19:35;10.27;;;7.00;;
27003;SDS011;14546;47.590;19.022;2023-01-23T03:22:02;10.73;;;7.07;;
27003;SDS011;14546;47.590;19.022;2023-01-23T03:24:28;8.70;;;6.22;;
27003;SDS011;14546;47.590;19.022;2023-01-23T03:26:55;10.25;;;6.85;;
27003;SDS011;14546;47.590;19.022;2023-01-23T03:29:23;10.90;;;6.70;;
27003;SDS011;14546;47.590;19.022;2023-01-23T03:32:09;9.68;;;6.32;;
27003;SDS011;14546;47.590;19.022;2023-01-23T03:34:36;14.00;;;6.38;;
27003;SDS011;14546;47.590;19.022;2023-01-23T03:37:02;10.93;;;6.07;;
27003;SDS011;14546;47.590;19.022;2023-01-23T03:39:28;11.40;;;6.40;;
27003;SDS011;14546;47.590;19.022;2023-01-23T03:42:14;11.25;;;5.60;;
27003;SDS011;14546;47.590;19.022;2023-01-23T03:44:41;10.55;;;5.82;;
27003;SDS011;14546;47.590;19.022;2023-01-23T03:47:07;10.00;;;5.72;;
27003;SDS011;14546;47.590;19.022;2023-01-23T03:49:33;7.35;;;5.30;;
27003;SDS011;14546;47.590;19.022;2023-01-23T03:51:59;8.82;;;5.90;;
27003;SDS011;14546;47.590;19.022;2023-01-23T03:54:25;8.05;;;5.65;;
27003;SDS011;14546;47.590;19.022;2023-01-23T03:56:51;9.77;;;6.10;;
27003;SDS011;14546;47.590;19.022;2023-01-23T03:59:18;11.55;;;5.60;;
27003;SDS011;14546;47.590;19.022;2023-01-23T04:01:45;7.45;;;5.45;;
27003;SDS011;14546;47.590;19.022;2023-01-23T04:04:12;9.60;;;5.57;;
27003;SDS011;14546;47.590;19.022;2023-01-23T04:06:39;7.57;;;5.50;;
27003;SDS011;14546;47.590;19.022;2023-01-23T04:09:05;7.60;;;5.07;;
27003;SDS011;14546;47.590;19.022;2023-01-23T04:11:31;8.45;;;6.05;;
27003;SDS011;14546;47.590;19.022;2023-01-23T04:13:57;7.43;;;4.90;;
27003;SDS011;14546;47.590;19.022;2023-01-23T04:16:23;9.10;;;5.90;;
27003;SDS011;14546;47.590;19.022;2023-01-23T04:18:51;12.20;;;6.88;;
27003;SDS011;14546;47.590;19.022;2023-01-23T04:21:18;7.50;;;5.15;;
27003;SDS011;14546;47.590;19.022;2023-01-23T04:23:44;9.65;;;5.60;;
27003;SDS011;14546;47.590;19.022;2023-01-23T04:26:10;8.93;;;5.18;;
27003;SDS011;14546;47.590;19.022;2023-01-23T04:28:36;10.20;;;5.10;;
27003;SDS011;14546;47.590;19.022;2023-01-23T04:31:03;9.07;;;5.28;;
27003;SDS011;14546;47.590;19.022;2023-01-23T04:33:29;8.82;;;5.50;;
27003;SDS011;14546;47.590;19.022;2023-01-23T04:35:56;8.73;;;5.70;;
27003;SDS011;14546;47.590;19.022;2023-01-23T04:38:24;9.27;;;5.43;;
27003;SDS011;14546;47.590;19.022;2023-01-23T04:40:50;7.82;;;5.60;;
27003;SDS011;14546;47.590;19.022;2023-01-23T04:43:17;8.38;;;5.40;;
27003;SDS011;14546;47.590;19.022;2023-01-23T04:45:43;8.73;;;5.53;;
27003;SDS011;14546;47.590;19.022;2023-01-23T04:48:10;8.73;;;5.45;;
27003;SDS011;14546;47.590;19.022;2023-01-23T04:50:36;10.10;;;5.10;;
27003;SDS011;14546;47.590;19.022;2023-01-23T04:53:04;6.45;;;4.65;;
27003;SDS011;14546;47.590;19.022;2023-01-23T04:55:31;7.35;;;5.55;;
27003;SDS011;14546;47.590;19.022;2023-01-23T04:57:58;7.38;;;5.13;;
27003;SDS011;14546;47.590;19.022;2023-01-23T05:00:25;6.15;;;4.95;;
27003;SDS011;14546;47.590;19.022;2023-01-23T05:02:54;8.07;;;5.18;;
27003;SDS011;14546;47.590;19.022;2023-01-23T05:05:20;6.65;;;4.88;;
27003;SDS011;14546;47.590;19.022;2023-01-23T05:07:47;9.43;;;4.80;;
27003;SDS011;14546;47.590;19.022;2023-01-23T05:10:13;8.93;;;4.85;;
27003;SDS011;14546;47.590;19.022;2023-01-23T05:12:39;6.82;;;4.70;;
27003;SDS011;14546;47.590;19.022;2023-01-23T05:15:06;8.43;;;5.28;;
27003;SDS011;14546;47.590;19.022;2023-01-23T05:17:32;9.15;;;5.65;;
27003;SDS011;14546;47.590;19.022;2023-01-23T05:19:58;8.75;;;5.00;;
27003;SDS011;14546;47.590;19.022;2023-01-23T05:22:24;7.43;;;5.22;;
27003;SDS011;14546;47.590;19.022;2023-01-23T05:24:51;7.28;;;4.60;;
27003;SDS011;14546;47.590;19.022;2023-01-23T05:27:18;6.88;;;4.30;;
27003;SDS011;14546;47.590;19.022;2023-01-23T05:29:44;10.77;;;5.13;;
27003;SDS011;14546;47.590;19.022;2023-01-23T05:32:10;9.70;;;5.30;;
27003;SDS011;14546;47.590;19.022;2023-01-23T05:34:37;8.50;;;4.68;;
27003;SDS011;14546;47.590;19.022;2023-01-23T05:37:03;9.45;;;4.72;;
27003;SDS011;14546;47.590;19.022;2023-01-23T05:39:32;9.80;;;4.95;;
27003;SDS011;14546;47.590;19.022;2023-01-23T05:41:58;7.22;;;4.65;;
27003;SDS011;14546;47.590;19.022;2023-01-23T05:44:24;7.70;;;4.60;;
27003;SDS011;14546;47.590;19.022;2023-01-23T05:46:50;8.20;;;4.65;;
27003;SDS011;14546;47.590;19.022;2023-01-23T05:49:16;10.90;;;4.90;;
27003;SDS011;14546;47.590;19.022;2023-01-23T05:51:42;6.82;;;4.45;;
27003;SDS011;14546;47.590;19.022;2023-01-23T05:54:09;8.63;;;5.05;;
27003;SDS011;14546;47.590;19.022;2023-01-23T05:56:35;7.72;;;5.20;;
27003;SDS011;14546;47.590;19.022;2023-01-23T05:59:01;9.25;;;5.47;;
27003;SDS011;14546;47.590;19.022;2023-01-23T06:01:29;8.95;;;5.35;;
27003;SDS011;14546;47.590;19.022;2023-01-23T06:03:55;10.23;;;5.13;;
27003;SDS011;14546;47.590;19.022;2023-01-23T06:06:21;9.10;;;5.30;;
27003;SDS011;14546;47.590;19.022;2023-01-23T06:08:47;8.75;;;5.65;;
27003;SDS011;14546;47.590;19.022;2023-01-23T06:11:14;9.23;;;5.63;;
27003;SDS011;14546;47.590;19.022;2023-01-23T06:13:40;8.73;;;5.07;;
27003;SDS011;14546;47.590;19.022;2023-01-23T06:16:06;7.68;;;5.18;;
27003;SDS011;14546;47.590;19.022;2023-01-23T06:18:33;8.80;;;4.38;;
27003;SDS011;14546;47.590;19.022;2023-01-23T06:20:59;7.10;;;4.70;;
27003;SDS011;14546;47.590;19.022;2023-01-23T06:23:26;9.23;;;5.00;;
27003;SDS011;14546;47.590;19.022;2023-01-23T06:25:52;8.02;;;5.05;;
27003;SDS011;14546;47.590;19.022;2023-01-23T06:28:18;8.93;;;5.00;;
27003;SDS011;14546;47.590;19.022;2023-01-23T06:30:44;9.75;;;5.20;;
27003;SDS011;14546;47.590;19.022;2023-01-23T06:33:10;12.07;;;5.15;;
27003;SDS011;14546;47.590;19.022;2023-01-23T06:35:39;11.70;;;5.95;;
27003;SDS011;14546;47.590;19.022;2023-01-23T06:38:05;10.82;;;5.07;;
27003;SDS011;14546;47.590;19.022;2023-01-23T06:40:31;12.15;;;5.47;;
27003;SDS011;14546;47.590;19.022;2023-01-23T06:42:57;6.03;;;4.43;;
27003;SDS011;14546;47.590;19.022;2023-01-23T06:45:23;7.63;;;4.50;;
27003;SDS011;14546;47.590;19.022;2023-01-23T06:47:50;8.00;;;4.78;;
27003;SDS011;14546;47.590;19.022;2023-01-23T06:50:16;11.27;;;5.20;;
27003;SDS011;14546;47.590;19.022;2023-01-23T06:52:42;8.85;;;5.20;;
27003;SDS011;14546;47.590;19.022;2023-01-23T06:55:08;8.35;;;5.50;;
27003;SDS011;14546;47.590;19.022;2023-01-23T06:57:35;8.40;;;5.30;;
27003;SDS011;14546;47.590;19.022;2023-01-23T07:00:02;6.95;;;5.15;;
27003;SDS011;14546;47.590;19.022;2023-01-23T07:02:28;12.07;;;5.03;;
27003;SDS011;14546;47.590;19.022;2023-01-23T07:04:54;11.35;;;5.15;;
27003;SDS011;14546;47.590;19.022;2023-01-23T07:07:20;10.38;;;5.13;;
27003;SDS011;14546;47.590;19.022;2023-01-23T07:09:46;8.73;;;5.80;;
27003;SDS011;14546;47.590;19.022;2023-01-23T07:12:12;9.70;;;5.38;;
27003;SDS011;14546;47.590;19.022;2023-01-23T07:14:38;8.73;;;5.63;;
27003;SDS011;14546;47.590;19.022;2023-01-23T07:17:04;9.07;;;5.35;;
27003;SDS011;14546;47.590;19.022;2023-01-23T07:19:30;9.43;;;5.10;;
27003;SDS011;14546;47.590;19.022;2023-01-23T07:21:56;8.13;;;4.85;;
27003;SDS011;14546;47.590;19.022;2023-01-23T07:24:22;6.30;;;4.68;;
27003;SDS011;14546;47.590;19.022;2023-01-23T07:26:48;8.52;;;5.25;;
27003;SDS011;14546;47.590;19.022;2023-01-23T07:29:14;8.25;;;5.00;;
27003;SDS011;14546;47.590;19.022;2023-01-23T07:31:40;9.07;;;4.82;;
27003;SDS011;14546;47.590;19.022;2023-01-23T07:34:06;8.15;;;4.90;;
27003;SDS011;14546;47.590;19.022;2023-01-23T07:36:33;6.70;;;4.70;;
27003;SDS011;14546;47.590;19.022;2023-01-23T07:38:59;5.57;;;4.60;;
27003;SDS011;14546;47.590;19.022;2023-01-23T07:41:25;7.82;;;4.95;;
27003;SDS011;14546;47.590;19.022;2023-01-23T07:43:51;7.20;;;4.78;;
27003;SDS011;14546;47.590;19.022;2023-01-23T07:46:18;13.07;;;5.13;;
27003;SDS011;14546;47.590;19.022;2023-01-23T07:48:45;9.38;;;4.85;;
27003;SDS011;14546;47.590;19.022;2023-01-23T07:51:11;6.32;;;4.50;;
27003;SDS011;14546;47.590;19.022;2023-01-23T07:53:39;6.20;;;4.40;;
27003;SDS011;14546;47.590;19.022;2023-01-23T07:56:05;8.82;;;4.90;;
27003;SDS011;14546;47.590;19.022;2023-01-23T07:58:32;6.75;;;5.18;;
27003;SDS011;14546;47.590;19.022;2023-01-23T08:00:58;9.13;;;5.10;;
27003;SDS011;14546;47.590;19.022;2023-01-23T08:03:24;6.55;;;5.00;;
27003;SDS011;14546;47.590;19.022;2023-01-23T08:05:52;10.52;;;5.25;;
27003;SDS011;14546;47.590;19.022;2023-01-23T08:08:18;8.68;;;5.40;;
27003;SDS011;14546;47.590;19.022;2023-01-23T08:10:44;9.13;;;4.65;;
27003;SDS011;14546;47.590;19.022;2023-01-23T08:13:11;11.02;;;4.82;;
27003;SDS011;14546;47.590;19.022;2023-01-23T08:15:37;8.18;;;5.28;;
27003;SDS011;14546;47.590;19.022;2023-01-23T08:18:04;11.65;;;4.93;;
27003;SDS011;14546;47.590;19.022;2023-01-23T08:20:31;8.70;;;5.75;;
27003;SDS011;14546;47.590;19.022;2023-01-23T08:22:58;8.60;;;5.00;;
27003;SDS011;14546;47.590;19.022;2023-01-23T08:25:26;8.15;;;5.07;;
27003;SDS011;14546;47.590;19.022;2023-01-23T08:27:52;8.63;;;5.07;;
27003;SDS011;14546;47.590;19.022;2023-01-23T08:30:19;7.47;;;4.65;;
27003;SDS011;14546;47.590;19.022;2023-01-23T08:32:45;10.25;;;5.50;;
27003;SDS011;14546;47.590;19.022;2023-01-23T08:35:12;10.10;;;5.15;;
27003;SDS011;14546;47.590;19.022;2023-01-23T08:37:38;20.25;;;6.25;;
27003;SDS011;14546;47.590;19.022;2023-01-23T08:40:06;8.93;;;4.93;;
27003;SDS011;14546;47.590;19.022;2023-01-23T08:42:32;9.52;;;5.30;;
27003;SDS011;14546;47.590;19.022;2023-01-23T08:44:58;7.43;;;5.53;;
27003;SDS011;14546;47.590;19.022;2023-01-23T08:47:24;8.27;;;5.65;;
27003;SDS011;14546;47.590;19.022;2023-01-23T08:49:51;9.77;;;5.47;;
27003;SDS011;14546;47.590;19.022;2023-01-23T08:52:17;10.63;;;6.28;;
27003;SDS011;14546;47.590;19.022;2023-01-23T08:54:43;9.20;;;5.50;;
27003;SDS011;14546;47.590;19.022;2023-01-23T08:57:09;10.13;;;5.97;;
27003;SDS011;14546;47.590;19.022;2023-01-23T08:59:36;8.52;;;5.25;;
27003;SDS011;14546;47.590;19.022;2023-01-23T09:02:02;8.18;;;5.78;;
27003;SDS011;14546;47.590;19.022;2023-01-23T09:04:29;9.07;;;5.45;;
27003;SDS011;14546;47.590;19.022;2023-01-23T09:06:55;8.57;;;5.60;;
27003;SDS011;14546;47.590;19.022;2023-01-23T09:09:21;8.27;;;5.57;;
27003;SDS011;14546;47.590;19.022;2023-01-23T09:11:47;10.80;;;6.00;;
27003;SDS011;14546;47.590;19.022;2023-01-23T09:14:13;9.45;;;5.97;;
27003;SDS011;14546;47.590;19.022;2023-01-23T09:16:39;11.10;;;5.50;;
27003;SDS011;14546;47.590;19.022;2023-01-23T09:19:05;10.73;;;6.30;;
27003;SDS011;14546;47.590;19.022;2023-01-23T09:21:32;10.02;;;6.03;;
27003;SDS011;14546;47.590;19.022;2023-01-23T09:23:58;8.68;;;5.63;;
27003;SDS011;14546;47.590;19.022;2023-01-23T09:26:24;10.45;;;6.20;;
27003;SDS011;14546;47.590;19.022;2023-01-23T09:28:50;13.50;;;5.97;;
27003;SDS011;14546;47.590;19.022;2023-01-23T09:31:16;11.40;;;5.95;;
27003;SDS011;14546;47.590;19.022;2023-01-23T09:33:42;11.02;;;6.97;;
27003;SDS011;14546;47.590;19.022;2023-01-23T09:36:08;11.82;;;6.85;;
27003;SDS011;14546;47.590;19.022;2023-01-23T09:38:35;9.30;;;6.60;;
27003;SDS011;14546;47.590;19.022;2023-01-23T09:41:09;11.00;;;6.65;;
27003;SDS011;14546;47.590;19.022;2023-01-23T09:49:04;14.02;;;5.97;;
27003;SDS011;14546;47.590;19.022;2023-01-23T09:54:03;10.05;;;5.78;;
27003;SDS011;14546;47.590;19.022;2023-01-23T09:56:37;8.38;;;5.15;;
27003;SDS011;14546;47.590;19.022;2023-01-23T09:59:12;8.20;;;4.88;;
27003;SDS011;14546;47.590;19.022;2023-01-23T10:01:39;10.63;;;5.45;;
27003;SDS011;14546;47.590;19.022;2023-01-23T10:04:05;9.98;;;5.93;;
27003;SDS011;14546;47.590;19.022;2023-01-23T10:16:59;8.73;;;5.72;;
27003;SDS011;14546;47.590;19.022;2023-01-23T10:27:18;10.07;;;5.68;;
27003;SDS011;14546;47.590;19.022;2023-01-23T10:29:49;10.07;;;5.65;;
27003;SDS011;14546;47.590;19.022;2023-01-23T10:32:27;8.60;;;5.32;;
27003;SDS011;14546;47.590;19.022;2023-01-23T10:35:09;9.15;;;5.80;;
27003;SDS011;14546;47.590;19.022;2023-01-23T10:40:09;8.90;;;5.47;;
27003;SDS011;14546;47.590;19.022;2023-01-23T10:42:36;9.02;;;5.47;;
27003;SDS011;14546;47.590;19.022;2023-01-23T10:45:02;8.70;;;5.20;;
27003;SDS011;14546;47.590;19.022;2023-01-23T10:47:49;15.40;;;5.60;;
27003;SDS011;14546;47.590;19.022;2023-01-23T10:50:15;8.50;;;5.05;;
27003;SDS011;14546;47.590;19.022;2023-01-23T10:53:04;10.13;;;4.82;;
27003;SDS011;14546;47.590;19.022;2023-01-23T10:55:31;8.20;;;4.95;;
27003;SDS011;14546;47.590;19.022;2023-01-23T10:57:58;6.97;;;4.82;;
27003;SDS011;14546;47.590;19.022;2023-01-23T11:05:49;8.18;;;4.80;;
27003;SDS011;14546;47.590;19.022;2023-01-23T11:10:48;8.05;;;5.15;;
27003;SDS011;14546;47.590;19.022;2023-01-23T11:13:35;8.60;;;4.85;;
27003;SDS011;14546;47.590;19.022;2023-01-23T11:16:01;9.98;;;5.00;;
27003;SDS011;14546;47.590;19.022;2023-01-23T11:20:53;8.52;;;4.72;;
27003;SDS011;14546;47.590;19.022;2023-01-23T11:23:19;8.40;;;4.95;;
27003;SDS011;14546;47.590;19.022;2023-01-23T11:25:46;9.57;;;4.88;;
27003;SDS011;14546;47.590;19.022;2023-01-23T11:31:16;7.20;;;4.90;;
27003;SDS011;14546;47.590;19.022;2023-01-23T11:33:41;11.27;;;4.72;;
27003;SDS011;14546;47.590;19.022;2023-01-23T11:38:44;9.30;;;5.00;;
27003;SDS011;14546;47.590;19.022;2023-01-23T11:41:12;6.72;;;4.50;;
27003;SDS011;14546;47.590;19.022;2023-01-23T11:43:39;8.68;;;5.15;;
27003;SDS011;14546;47.590;19.022;2023-01-23T11:51:35;10.80;;;5.05;;
27003;SDS011;14546;47.590;19.022;2023-01-23T11:54:45;6.90;;;4.22;;
27003;SDS011;14546;47.590;19.022;2023-01-23T11:57:01;6.10;;;4.35;;
27003;SDS011;14546;47.590;19.022;2023-01-23T12:02:16;10.93;;;4.88;;
27003;SDS011;14546;47.590;19.022;2023-01-23T12:07:29;7.65;;;4.38;;
27003;SDS011;14546;47.590;19.022;2023-01-23T12:10:02;6.70;;;4.57;;
27003;SDS011;14546;47.590;19.022;2023-01-23T12:12:52;12.43;;;4.53;;
27003;SDS011;14546;47.590;19.022;2023-01-23T12:26:17;4.88;;;3.88;;
27003;SDS011;14546;47.590;19.022;2023-01-23T12:36:43;4.50;;;3.65;;
27003;SDS011;14546;47.590;19.022;2023-01-23T12:41:42;5.72;;;3.70;;
27003;SDS011;14546;47.590;19.022;2023-01-23T12:44:10;4.15;;;3.38;;
27003;SDS011;14546;47.590;19.022;2023-01-23T12:46:48;6.53;;;3.70;;
27003;SDS011;14546;47.590;19.022;2023-01-23T12:51:58;7.72;;;3.92;;
27003;SDS011;14546;47.590;19.022;2023-01-23T12:54:31;7.47;;;4.00;;
27003;SDS011;14546;47.590;19.022;2023-01-23T12:56:58;9.57;;;3.65;;
27003;SDS011;14546;47.590;19.022;2023-01-23T12:59:25;5.93;;;3.60;;
27003;SDS011;14546;47.590;19.022;2023-01-23T13:04:53;5.15;;;3.55;;
27003;SDS011;14546;47.590;19.022;2023-01-23T13:07:23;7.63;;;3.72;;
27003;SDS011;14546;47.590;19.022;2023-01-23T13:12:37;5.45;;;3.75;;
27003;SDS011;14546;47.590;19.022;2023-01-23T13:15:19;9.10;;;4.05;;
27003;SDS011;14546;47.590;19.022;2023-01-23T13:17:58;5.47;;;3.85;;
27003;SDS011;14546;47.590;19.022;2023-01-23T13:26:40;7.57;;;3.90;;
27003;SDS011;14546;47.590;19.022;2023-01-23T13:34:01;5.50;;;3.33;;
27003;SDS011;14546;47.590;19.022;2023-01-23T13:36:28;6.85;;;3.22;;
27003;SDS011;14546;47.590;19.022;2023-01-23T13:58:12;6.85;;;4.00;;
27003;SDS011;14546;47.590;19.022;2023-01-23T14:00:39;5.47;;;3.70;;
27003;SDS011;14546;47.590;19.022;2023-01-23T14:06:04;8.02;;;4.93;;
27003;SDS011;14546;47.590;19.022;2023-01-23T14:08:31;9.82;;;4.65;;
27003;SDS011;14546;47.590;19.022;2023-01-23T14:10:57;9.43;;;4.60;;
27003;SDS011;14546;47.590;19.022;2023-01-23T14:13:24;8.63;;;4.57;;
27003;SDS011;14546;47.590;19.022;2023-01-23T14:15:52;6.35;;;4.35;;
27003;SDS011;14546;47.590;19.022;2023-01-23T14:18:53;8.10;;;4.27;;
27003;SDS011;14546;47.590;19.022;2023-01-23T14:21:29;7.68;;;4.60;;
27003;SDS011;14546;47.590;19.022;2023-01-23T14:23:59;7.70;;;4.68;;
27003;SDS011;14546;47.590;19.022;2023-01-23T14:26:32;6.60;;;4.22;;
27003;SDS011;14546;47.590;19.022;2023-01-23T14:29:02;7.72;;;4.40;;
27003;SDS011;14546;47.590;19.022;2023-01-23T14:31:29;9.63;;;4.57;;
27003;SDS011;14546;47.590;19.022;2023-01-23T14:34:03;10.30;;;5.35;;
27003;SDS011;14546;47.590;19.022;2023-01-23T14:36:33;7.47;;;4.93;;
27003;SDS011;14546;47.590;19.022;2023-01-23T14:39:00;10.77;;;5.15;;
27003;SDS011;14546;47.590;19.022;2023-01-23T14:41:29;14.80;;;5.30;;
27003;SDS011;14546;47.590;19.022;2023-01-23T14:43:56;9.32;;;4.85;;
27003;SDS011;14546;47.590;19.022;2023-01-23T14:48:57;6.70;;;4.75;;
27003;SDS011;14546;47.590;19.022;2023-01-23T14:51:24;15.93;;;5.00;;
27003;SDS011;14546;47.590;19.022;2023-01-23T14:53:57;7.18;;;5.05;;
27003;SDS011;14546;47.590;19.022;2023-01-23T14:56:25;9.23;;;5.25;;
27003;SDS011;14546;47.590;19.022;2023-01-23T14:58:53;10.82;;;5.10;;
27003;SDS011;14546;47.590;19.022;2023-01-23T15:01:19;6.40;;;4.22;;
27003;SDS011;14546;47.590;19.022;2023-01-23T15:03:59;8.40;;;5.40;;
27003;SDS011;14546;47.590;19.022;2023-01-23T15:06:25;13.23;;;5.65;;
27003;SDS011;14546;47.590;19.022;2023-01-23T15:08:51;14.18;;;5.50;;
27003;SDS011;14546;47.590;19.022;2023-01-23T15:11:25;10.48;;;5.45;;
27003;SDS011;14546;47.590;19.022;2023-01-23T15:13:52;10.10;;;5.68;;
27003;SDS011;14546;47.590;19.022;2023-01-23T15:16:20;11.13;;;6.00;;
27003;SDS011;14546;47.590;19.022;2023-01-23T15:18:51;12.20;;;6.00;;
27003;SDS011;14546;47.590;19.022;2023-01-23T15:21:28;10.57;;;6.22;;
27003;SDS011;14546;47.590;19.022;2023-01-23T15:23:58;10.40;;;6.28;;
27003;SDS011;14546;47.590;19.022;2023-01-23T15:26:29;11.57;;;6.38;;
27003;SDS011;14546;47.590;19.022;2023-01-23T15:29:00;10.85;;;5.80;;
27003;SDS011;14546;47.590;19.022;2023-01-23T15:33:54;10.55;;;6.05;;
27003;SDS011;14546;47.590;19.022;2023-01-23T15:36:27;9.95;;;6.28;;
27003;SDS011;14546;47.590;19.022;2023-01-23T15:44:09;9.25;;;6.40;;
27003;SDS011;14546;47.590;19.022;2023-01-23T15:46:36;10.40;;;6.72;;
27003;SDS011;14546;47.590;19.022;2023-01-23T15:49:02;9.15;;;6.18;;
27003;SDS011;14546;47.590;19.022;2023-01-23T15:51:28;15.80;;;6.32;;
27003;SDS011;14546;47.590;19.022;2023-01-23T15:53:54;16.30;;;6.30;;
27003;SDS011;14546;47.590;19.022;2023-01-23T15:56:24;10.70;;;6.13;;
27003;SDS011;14546;47.590;19.022;2023-01-23T15:58:51;12.55;;;6.88;;
27003;SDS011;14546;47.590;19.022;2023-01-23T16:01:17;18.30;;;7.15;;
27003;SDS011;14546;47.590;19.022;2023-01-23T16:03:44;9.10;;;6.32;;
27003;SDS011;14546;47.590;19.022;2023-01-23T16:06:14;13.13;;;7.07;;
27003;SDS011;14546;47.590;19.022;2023-01-23T16:08:40;14.27;;;8.27;;
27003;SDS011;14546;47.590;19.022;2023-01-23T16:11:06;18.80;;;10.20;;
27003;SDS011;14546;47.590;19.022;2023-01-23T16:13:32;13.20;;;8.07;;
27003;SDS011;14546;47.590;19.022;2023-01-23T16:15:58;15.13;;;8.07;;
27003;SDS011;14546;47.590;19.022;2023-01-23T16:18:24;16.67;;;8.45;;
27003;SDS011;14546;47.590;19.022;2023-01-23T16:20:50;16.17;;;9.10;;
27003;SDS011;14546;47.590;19.022;2023-01-23T16:23:22;15.95;;;9.52;;
27003;SDS011;14546;47.590;19.022;2023-01-23T16:25:48;15.95;;;9.77;;
27003;SDS011;14546;47.590;19.022;2023-01-23T16:28:19;18.33;;;10.23;;
27003;SDS011;14546;47.590;19.022;2023-01-23T16:30:45;16.13;;;9.38;;
27003;SDS011;14546;47.590;19.022;2023-01-23T16:33:12;15.10;;;9.35;;
27003;SDS011;14546;47.590;19.022;2023-01-23T16:35:38;18.35;;;9.73;;
27003;SDS011;14546;47.590;19.022;2023-01-23T16:38:04;21.85;;;8.90;;
27003;SDS011;14546;47.590;19.022;2023-01-23T16:40:31;15.27;;;9.13;;
27003;SDS011;14546;47.590;19.022;2023-01-23T16:43:00;22.63;;;9.75;;
27003;SDS011;14546;47.590;19.022;2023-01-23T16:45:28;20.52;;;8.32;;